sensor_id;sensor_type;location;lat;lon;timestamp;pressure;altitude;pressure_sealevel;temperature;humidity
13235;BME280;6683;48.506;9.050;2023-02-24T00:02:28;97670.94;;;9.63;60.61
13235;BME280;6683;48.506;9.050;2023-02-24T00:05:34;97670.94;;;9.63;60.53
13235;BME280;6683;48.506;9.050;2023-02-24T00:08:37;97661.84;;;9.65;60.54
13235;BME280;6683;48.506;9.050;2023-02-24T00:11:43;97659.22;;;9.65;60.54
13235;BME280;6683;48.506;9.050;2023-02-24T00:14:46;97655.97;;;9.70;60.58
13235;BME280;6683;48.506;9.050;2023-02-24T00:17:48;97654.78;;;9.73;60.58
13235;BME280;6683;48.506;9.050;2023-02-24T00:20:51;97650.75;;;9.77;60.73
13235;BME280;6683;48.506;9.050;2023-02-24T00:23:56;97660.91;;;9.80;60.64
13235;BME280;6683;48.506;9.050;2023-02-24T00:27:03;97656.06;;;9.83;60.65
13235;BME280;6683;48.506;9.050;2023-02-24T00:30:10;97650.56;;;9.85;60.69
13235;BME280;6683;48.506;9.050;2023-02-24T00:33:12;97648.97;;;9.84;60.60
13235;BME280;6683;48.506;9.050;2023-02-24T00:36:16;97651.59;;;9.84;60.61
13235;BME280;6683;48.506;9.050;2023-02-24T00:39:24;97645.72;;;9.82;60.74
13235;BME280;6683;48.506;9.050;2023-02-24T00:42:31;97650.97;;;9.82;60.88
13235;BME280;6683;48.506;9.050;2023-02-24T00:45:34;97646.53;;;9.82;60.84
13235;BME280;6683;48.506;9.050;2023-02-24T00:48:39;97634.97;;;9.83;60.81
13235;BME280;6683;48.506;9.050;2023-02-24T00:51:44;97634.34;;;9.81;60.63
13235;BME280;6683;48.506;9.050;2023-02-24T00:54:48;97628.88;;;9.83;60.76
13235;BME280;6683;48.506;9.050;2023-02-24T00:57:52;97631.34;;;9.84;60.53
13235;BME280;6683;48.506;9.050;2023-02-24T01:00:54;97626.84;;;9.85;60.59
13235;BME280;6683;48.506;9.050;2023-02-24T01:03:59;97623.22;;;9.86;60.60
13235;BME280;6683;48.506;9.050;2023-02-24T01:07:05;97624.66;;;9.88;60.84
13235;BME280;6683;48.506;9.050;2023-02-24T01:10:11;97619.56;;;9.87;60.61
13235;BME280;6683;48.506;9.050;2023-02-24T01:13:14;97614.69;;;9.84;60.81
13235;BME280;6683;48.506;9.050;2023-02-24T01:16:15;97616.50;;;9.83;60.96
13235;BME280;6683;48.506;9.050;2023-02-24T01:19:21;97617.34;;;9.84;60.75
13235;BME280;6683;48.506;9.050;2023-02-24T01:22:25;97611.03;;;9.85;60.90
13235;BME280;6683;48.506;9.050;2023-02-24T01:25:27;97598.69;;;9.85;60.66
13235;BME280;6683;48.506;9.050;2023-02-24T01:28:32;97602.97;;;9.86;60.99
13235;BME280;6683;48.506;9.050;2023-02-24T01:31:35;97604.56;;;9.87;60.84
13235;BME280;6683;48.506;9.050;2023-02-24T01:34:42;97609.47;;;9.90;61.08
13235;BME280;6683;48.506;9.050;2023-02-24T01:37:44;97602.78;;;9.94;61.22
13235;BME280;6683;48.506;9.050;2023-02-24T01:40:55;97600.97;;;9.95;60.96
13235;BME280;6683;48.506;9.050;2023-02-24T01:44:03;97596.13;;;9.98;61.20
13235;BME280;6683;48.506;9.050;2023-02-24T01:47:05;97605.47;;;10.01;60.99
13235;BME280;6683;48.506;9.050;2023-02-24T01:50:09;97595.53;;;10.03;61.00
13235;BME280;6683;48.506;9.050;2023-02-24T01:53:14;97593.50;;;10.05;61.12
13235;BME280;6683;48.506;9.050;2023-02-24T01:56:17;97581.31;;;10.04;60.95
13235;BME280;6683;48.506;9.050;2023-02-24T01:59:24;97581.13;;;10.05;61.18
13235;BME280;6683;48.506;9.050;2023-02-24T02:02:29;97578.91;;;10.09;61.09
13235;BME280;6683;48.506;9.050;2023-02-24T02:05:31;97571.66;;;10.11;61.38
13235;BME280;6683;48.506;9.050;2023-02-24T02:08:35;97575.72;;;10.13;61.16
13235;BME280;6683;48.506;9.050;2023-02-24T02:11:39;97576.50;;;10.14;60.93
13235;BME280;6683;48.506;9.050;2023-02-24T02:14:46;97570.44;;;10.13;60.93
13235;BME280;6683;48.506;9.050;2023-02-24T02:18:01;97572.06;;;10.14;61.11
13235;BME280;6683;48.506;9.050;2023-02-24T02:25:05;97564.34;;;10.13;61.13
13235;BME280;6683;48.506;9.050;2023-02-24T02:28:37;97556.66;;;10.11;61.01
13235;BME280;6683;48.506;9.050;2023-02-24T02:32:23;97559.91;;;10.13;61.19
13235;BME280;6683;48.506;9.050;2023-02-24T02:35:35;97564.16;;;10.14;61.01
13235;BME280;6683;48.506;9.050;2023-02-24T02:38:51;97563.75;;;10.17;61.00
13235;BME280;6683;48.506;9.050;2023-02-24T02:42:01;97556.25;;;10.21;61.41
13235;BME280;6683;48.506;9.050;2023-02-24T02:45:10;97562.97;;;10.23;61.22
13235;BME280;6683;48.506;9.050;2023-02-24T02:48:17;97553.63;;;10.21;60.93
13235;BME280;6683;48.506;9.050;2023-02-24T02:51:28;97549.38;;;10.20;61.19
13235;BME280;6683;48.506;9.050;2023-02-24T02:54:40;97544.28;;;10.18;61.15
13235;BME280;6683;48.506;9.050;2023-02-24T02:57:48;97540.84;;;10.18;61.09
13235;BME280;6683;48.506;9.050;2023-02-24T03:00:55;97537.19;;;10.19;61.09
13235;BME280;6683;48.506;9.050;2023-02-24T03:04:04;97532.31;;;10.22;61.15
13235;BME280;6683;48.506;9.050;2023-02-24T03:07:10;97530.28;;;10.24;61.09
13235;BME280;6683;48.506;9.050;2023-02-24T03:10:18;97530.09;;;10.26;60.93
13235;BME280;6683;48.506;9.050;2023-02-24T03:13:24;97527.25;;;10.27;61.48
13235;BME280;6683;48.506;9.050;2023-02-24T03:16:30;97534.97;;;10.29;61.47
13235;BME280;6683;48.506;9.050;2023-02-24T03:19:38;97532.16;;;10.30;61.49
13235;BME280;6683;48.506;9.050;2023-02-24T03:22:45;97527.47;;;10.32;61.28
13235;BME280;6683;48.506;9.050;2023-02-24T03:25:55;97521.19;;;10.33;61.08
13235;BME280;6683;48.506;9.050;2023-02-24T03:29:05;97519.16;;;10.35;60.94
13235;BME280;6683;48.506;9.050;2023-02-24T03:32:16;97519.75;;;10.37;61.31
13235;BME280;6683;48.506;9.050;2023-02-24T03:35:22;97506.34;;;10.39;61.23
13235;BME280;6683;48.506;9.050;2023-02-24T03:38:27;97514.09;;;10.40;61.08
13235;BME280;6683;48.506;9.050;2023-02-24T03:41:36;97502.50;;;10.41;61.05
13235;BME280;6683;48.506;9.050;2023-02-24T03:44:41;97506.78;;;10.42;60.85
13235;BME280;6683;48.506;9.050;2023-02-24T03:47:43;97510.44;;;10.41;61.02
13235;BME280;6683;48.506;9.050;2023-02-24T03:50:46;97510.03;;;10.38;60.84
13235;BME280;6683;48.506;9.050;2023-02-24T03:54:01;97513.25;;;10.33;60.87
13235;BME280;6683;48.506;9.050;2023-02-24T03:57:16;97518.97;;;10.30;60.86
13235;BME280;6683;48.506;9.050;2023-02-24T04:00:29;97511.44;;;10.27;61.20
13235;BME280;6683;48.506;9.050;2023-02-24T04:03:43;97508.78;;;10.27;61.42
13235;BME280;6683;48.506;9.050;2023-02-24T04:06:53;97507.75;;;10.28;61.43
13235;BME280;6683;48.506;9.050;2023-02-24T04:10:06;97501.69;;;10.28;61.44
13235;BME280;6683;48.506;9.050;2023-02-24T04:13:15;97496.59;;;10.26;61.51
13235;BME280;6683;48.506;9.050;2023-02-24T04:16:24;97501.09;;;10.26;61.42
13235;BME280;6683;48.506;9.050;2023-02-24T04:19:33;97498.47;;;10.26;61.43
13235;BME280;6683;48.506;9.050;2023-02-24T04:22:38;97500.06;;;10.27;61.33
13235;BME280;6683;48.506;9.050;2023-02-24T04:25:47;97493.97;;;10.26;61.49
13235;BME280;6683;48.506;9.050;2023-02-24T04:28:51;97492.16;;;10.27;61.42
13235;BME280;6683;48.506;9.050;2023-02-24T04:31:59;97479.19;;;10.25;61.47
13235;BME280;6683;48.506;9.050;2023-02-24T04:35:05;97481.00;;;10.25;61.69
13235;BME280;6683;48.506;9.050;2023-02-24T04:38:09;97482.22;;;10.29;61.45
13235;BME280;6683;48.506;9.050;2023-02-24T04:41:13;97472.47;;;10.29;61.64
13235;BME280;6683;48.506;9.050;2023-02-24T04:44:21;97477.97;;;10.28;61.63
13235;BME280;6683;48.506;9.050;2023-02-24T04:47:23;97466.59;;;10.27;61.65
13235;BME280;6683;48.506;9.050;2023-02-24T04:50:32;97462.31;;;10.26;61.47
13235;BME280;6683;48.506;9.050;2023-02-24T04:53:35;97458.69;;;10.27;61.97
13235;BME280;6683;48.506;9.050;2023-02-24T04:56:39;97464.56;;;10.29;62.00
13235;BME280;6683;48.506;9.050;2023-02-24T04:59:42;97463.56;;;10.30;61.80
13235;BME280;6683;48.506;9.050;2023-02-24T05:02:44;97457.06;;;10.33;61.49
13235;BME280;6683;48.506;9.050;2023-02-24T05:05:48;97453.41;;;10.34;61.32
13235;BME280;6683;48.506;9.050;2023-02-24T05:08:56;97446.31;;;10.34;61.68
13235;BME280;6683;48.506;9.050;2023-02-24T05:12:03;97444.28;;;10.36;61.84
13235;BME280;6683;48.506;9.050;2023-02-24T05:15:07;97447.53;;;10.38;61.62
13235;BME280;6683;48.506;9.050;2023-02-24T05:18:14;97440.84;;;10.36;61.75
13235;BME280;6683;48.506;9.050;2023-02-24T05:21:17;97446.94;;;10.36;61.61
13235;BME280;6683;48.506;9.050;2023-02-24T05:24:36;97437.16;;;10.37;62.03
13235;BME280;6683;48.506;9.050;2023-02-24T05:27:42;97432.72;;;10.37;62.24
13235;BME280;6683;48.506;9.050;2023-02-24T05:30:44;97437.59;;;10.40;62.00
13235;BME280;6683;48.506;9.050;2023-02-24T05:33:51;97432.09;;;10.42;61.48
13235;BME280;6683;48.506;9.050;2023-02-24T05:36:57;97431.50;;;10.47;61.58
13235;BME280;6683;48.506;9.050;2023-02-24T05:40:01;97418.31;;;10.47;61.30
13235;BME280;6683;48.506;9.050;2023-02-24T05:43:05;97426.81;;;10.49;61.64
13235;BME280;6683;48.506;9.050;2023-02-24T05:46:07;97408.34;;;10.49;61.35
13235;BME280;6683;48.506;9.050;2023-02-24T05:49:13;97413.41;;;10.50;61.31
13235;BME280;6683;48.506;9.050;2023-02-24T05:52:15;97415.84;;;10.52;61.62
13235;BME280;6683;48.506;9.050;2023-02-24T05:55:17;97407.94;;;10.52;61.15
13235;BME280;6683;48.506;9.050;2023-02-24T05:58:24;97405.09;;;10.53;61.53
13235;BME280;6683;48.506;9.050;2023-02-24T06:01:30;97401.88;;;10.51;61.53
13235;BME280;6683;48.506;9.050;2023-02-24T06:04:34;97408.75;;;10.52;61.85
13235;BME280;6683;48.506;9.050;2023-02-24T06:08:00;97401.25;;;10.49;61.47
13235;BME280;6683;48.506;9.050;2023-02-24T06:11:17;97390.72;;;10.49;61.66
13235;BME280;6683;48.506;9.050;2023-02-24T06:14:21;97396.78;;;10.50;61.57
13235;BME280;6683;48.506;9.050;2023-02-24T06:17:24;97396.78;;;10.50;61.56
13235;BME280;6683;48.506;9.050;2023-02-24T06:20:28;97390.50;;;10.51;61.49
13235;BME280;6683;48.506;9.050;2023-02-24T06:23:32;97393.13;;;10.51;61.85
13235;BME280;6683;48.506;9.050;2023-02-24T06:26:35;97390.28;;;10.52;61.37
13235;BME280;6683;48.506;9.050;2023-02-24T06:29:38;97388.47;;;10.53;61.84
13235;BME280;6683;48.506;9.050;2023-02-24T06:32:41;97380.13;;;10.56;61.43
13235;BME280;6683;48.506;9.050;2023-02-24T06:35:44;97376.25;;;10.58;61.67
13235;BME280;6683;48.506;9.050;2023-02-24T06:38:47;97374.44;;;10.59;61.70
13235;BME280;6683;48.506;9.050;2023-02-24T06:41:51;97380.53;;;10.59;61.41
13235;BME280;6683;48.506;9.050;2023-02-24T06:44:55;97382.16;;;10.60;61.67
13235;BME280;6683;48.506;9.050;2023-02-24T06:47:57;97389.28;;;10.60;61.62
13235;BME280;6683;48.506;9.050;2023-02-24T06:51:04;97390.06;;;10.60;61.79
13235;BME280;6683;48.506;9.050;2023-02-24T06:54:07;97393.13;;;10.64;61.78
13235;BME280;6683;48.506;9.050;2023-02-24T06:57:09;97386.81;;;10.65;61.83
13235;BME280;6683;48.506;9.050;2023-02-24T07:00:16;97388.03;;;10.62;61.57
13235;BME280;6683;48.506;9.050;2023-02-24T07:03:20;97381.97;;;10.62;61.56
13235;BME280;6683;48.506;9.050;2023-02-24T07:06:24;97385.19;;;10.64;61.64
13235;BME280;6683;48.506;9.050;2023-02-24T07:09:30;97381.91;;;10.68;61.80
13235;BME280;6683;48.506;9.050;2023-02-24T07:12:32;97371.19;;;10.70;61.77
13235;BME280;6683;48.506;9.050;2023-02-24T07:15:37;97374.00;;;10.68;61.77
13235;BME280;6683;48.506;9.050;2023-02-24T07:18:40;97374.81;;;10.69;61.65
13235;BME280;6683;48.506;9.050;2023-02-24T07:21:44;97372.19;;;10.69;61.82
13235;BME280;6683;48.506;9.050;2023-02-24T07:24:49;97370.75;;;10.73;61.79
13235;BME280;6683;48.506;9.050;2023-02-24T07:28:00;97374.41;;;10.78;61.77
13235;BME280;6683;48.506;9.050;2023-02-24T07:31:06;97371.13;;;10.83;61.49
13235;BME280;6683;48.506;9.050;2023-02-24T07:34:09;97368.47;;;10.89;61.43
13235;BME280;6683;48.506;9.050;2023-02-24T07:37:14;97371.91;;;10.90;61.53
13235;BME280;6683;48.506;9.050;2023-02-24T07:40:17;97361.34;;;10.90;61.17
13235;BME280;6683;48.506;9.050;2023-02-24T07:43:21;97366.41;;;10.91;61.34
13235;BME280;6683;48.506;9.050;2023-02-24T07:46:26;97354.66;;;10.94;61.24
13235;BME280;6683;48.506;9.050;2023-02-24T07:49:29;97364.59;;;10.98;61.67
13235;BME280;6683;48.506;9.050;2023-02-24T07:52:31;97360.28;;;11.04;61.28
13235;BME280;6683;48.506;9.050;2023-02-24T07:55:34;97359.88;;;11.07;61.54
13235;BME280;6683;48.506;9.050;2023-02-24T07:58:36;97360.03;;;11.12;61.18
13235;BME280;6683;48.506;9.050;2023-02-24T08:01:41;97350.91;;;11.14;61.36
13235;BME280;6683;48.506;9.050;2023-02-24T08:04:49;97353.50;;;11.21;61.34
13235;BME280;6683;48.506;9.050;2023-02-24T08:07:51;97357.94;;;11.27;61.52
13235;BME280;6683;48.506;9.050;2023-02-24T08:10:56;97361.59;;;11.33;61.15
13235;BME280;6683;48.506;9.050;2023-02-24T08:14:04;97348.97;;;11.35;61.00
13235;BME280;6683;48.506;9.050;2023-02-24T08:17:12;97351.19;;;11.38;61.36
13235;BME280;6683;48.506;9.050;2023-02-24T08:20:20;97346.13;;;11.36;61.06
13235;BME280;6683;48.506;9.050;2023-02-24T08:23:24;97347.53;;;11.39;60.93
13235;BME280;6683;48.506;9.050;2023-02-24T08:26:27;97344.69;;;11.40;61.10
13235;BME280;6683;48.506;9.050;2023-02-24T08:29:32;97340.38;;;11.46;60.86
13235;BME280;6683;48.506;9.050;2023-02-24T08:32:42;97339.34;;;11.47;61.07
13235;BME280;6683;48.506;9.050;2023-02-24T08:35:51;97333.25;;;11.46;60.62
13235;BME280;6683;48.506;9.050;2023-02-24T08:39:00;97330.59;;;11.46;60.89
13235;BME280;6683;48.506;9.050;2023-02-24T08:42:02;97329.78;;;11.46;61.00
13235;BME280;6683;48.506;9.050;2023-02-24T08:45:07;97334.28;;;11.45;60.85
13235;BME280;6683;48.506;9.050;2023-02-24T08:48:11;97330.22;;;11.43;60.64
13235;BME280;6683;48.506;9.050;2023-02-24T08:51:28;97327.59;;;11.43;61.04
13235;BME280;6683;48.506;9.050;2023-02-24T08:54:34;97329.41;;;11.42;61.07
13235;BME280;6683;48.506;9.050;2023-02-24T08:57:47;97321.50;;;11.42;61.14
13235;BME280;6683;48.506;9.050;2023-02-24T09:00:51;97314.75;;;11.46;61.18
13235;BME280;6683;48.506;9.050;2023-02-24T09:03:57;97303.56;;;11.51;61.08
13235;BME280;6683;48.506;9.050;2023-02-24T09:07:00;97310.63;;;11.57;61.11
13235;BME280;6683;48.506;9.050;2023-02-24T09:10:12;97306.31;;;11.62;60.74
13235;BME280;6683;48.506;9.050;2023-02-24T09:13:17;97299.78;;;11.71;61.10
13235;BME280;6683;48.506;9.050;2023-02-24T09:16:21;97295.44;;;11.77;61.15
13235;BME280;6683;48.506;9.050;2023-02-24T09:19:25;97296.44;;;11.82;60.71
13235;BME280;6683;48.506;9.050;2023-02-24T09:23:02;97298.00;;;11.90;60.91
13235;BME280;6683;48.506;9.050;2023-02-24T09:26:07;97286.13;;;11.99;60.67
13235;BME280;6683;48.506;9.050;2023-02-24T09:29:12;97283.84;;;12.02;60.60
13235;BME280;6683;48.506;9.050;2023-02-24T09:32:28;97284.16;;;12.13;60.91
13235;BME280;6683;48.506;9.050;2023-02-24T09:35:34;97281.44;;;12.19;60.51
13235;BME280;6683;48.506;9.050;2023-02-24T09:38:44;97285.50;;;12.22;60.36
13235;BME280;6683;48.506;9.050;2023-02-24T09:42:09;97287.91;;;12.23;60.33
13235;BME280;6683;48.506;9.050;2023-02-24T09:45:32;97279.75;;;12.25;60.39
13235;BME280;6683;48.506;9.050;2023-02-24T09:48:41;97277.50;;;12.28;60.53
13235;BME280;6683;48.506;9.050;2023-02-24T09:51:45;97266.63;;;12.36;60.36
13235;BME280;6683;48.506;9.050;2023-02-24T09:55:00;97275.66;;;12.47;60.49
13235;BME280;6683;48.506;9.050;2023-02-24T09:58:26;97263.84;;;12.49;60.18
13235;BME280;6683;48.506;9.050;2023-02-24T10:01:44;97271.09;;;12.54;60.24
13235;BME280;6683;48.506;9.050;2023-02-24T10:04:57;97274.47;;;12.61;60.26
13235;BME280;6683;48.506;9.050;2023-02-24T10:08:25;97268.28;;;12.67;60.14
13235;BME280;6683;48.506;9.050;2023-02-24T10:11:30;97263.75;;;12.74;59.92
13235;BME280;6683;48.506;9.050;2023-02-24T10:14:42;97252.91;;;12.75;59.88
13235;BME280;6683;48.506;9.050;2023-02-24T10:17:51;97252.84;;;12.82;59.64
13235;BME280;6683;48.506;9.050;2023-02-24T10:21:02;97254.44;;;12.83;59.85
13235;BME280;6683;48.506;9.050;2023-02-24T10:24:16;97244.91;;;12.82;59.50
13235;BME280;6683;48.506;9.050;2023-02-24T10:27:26;97238.13;;;12.86;59.66
13235;BME280;6683;48.506;9.050;2023-02-24T10:30:44;97232.81;;;12.86;59.53
13235;BME280;6683;48.506;9.050;2023-02-24T10:33:53;97232.16;;;12.91;59.46
13235;BME280;6683;48.506;9.050;2023-02-24T10:36:57;97236.56;;;12.97;59.52
13235;BME280;6683;48.506;9.050;2023-02-24T10:40:05;97228.13;;;13.00;59.51
13235;BME280;6683;48.506;9.050;2023-02-24T10:43:16;97222.19;;;13.04;59.51
13235;BME280;6683;48.506;9.050;2023-02-24T10:46:29;97211.16;;;13.07;59.43
13235;BME280;6683;48.506;9.050;2023-02-24T10:49:40;97212.09;;;13.13;59.26
13235;BME280;6683;48.506;9.050;2023-02-24T10:53:04;97217.75;;;13.16;59.20
13235;BME280;6683;48.506;9.050;2023-02-24T10:56:27;97208.34;;;13.20;59.05
13235;BME280;6683;48.506;9.050;2023-02-24T10:59:51;97201.75;;;13.23;59.00
13235;BME280;6683;48.506;9.050;2023-02-24T11:03:13;97195.78;;;13.27;58.92
13235;BME280;6683;48.506;9.050;2023-02-24T11:06:27;97187.81;;;13.27;59.02
13235;BME280;6683;48.506;9.050;2023-02-24T11:10:05;97181.50;;;13.28;59.03
13235;BME280;6683;48.506;9.050;2023-02-24T11:13:15;97184.72;;;13.30;58.81
13235;BME280;6683;48.506;9.050;2023-02-24T11:16:46;97171.25;;;13.32;58.85
13235;BME280;6683;48.506;9.050;2023-02-24T11:20:20;97173.22;;;13.36;59.07
13235;BME280;6683;48.506;9.050;2023-02-24T11:23:29;97156.63;;;13.41;58.92
13235;BME280;6683;48.506;9.050;2023-02-24T11:26:36;97159.75;;;13.49;58.84
13235;BME280;6683;48.506;9.050;2023-02-24T11:30:00;97144.88;;;13.60;58.89
13235;BME280;6683;48.506;9.050;2023-02-24T11:33:20;97141.75;;;13.86;58.98
13235;BME280;6683;48.506;9.050;2023-02-24T11:36:34;97135.88;;;14.35;58.38
13235;BME280;6683;48.506;9.050;2023-02-24T11:39:49;97126.72;;;14.99;57.98
13235;BME280;6683;48.506;9.050;2023-02-24T11:42:56;97110.50;;;15.84;56.89
13235;BME280;6683;48.506;9.050;2023-02-24T11:46:09;97098.50;;;16.73;56.12
13235;BME280;6683;48.506;9.050;2023-02-24T11:49:26;97086.13;;;17.94;54.79
13235;BME280;6683;48.506;9.050;2023-02-24T11:52:35;97074.38;;;18.97;53.63
13235;BME280;6683;48.506;9.050;2023-02-24T11:55:42;97070.63;;;19.53;52.16
13235;BME280;6683;48.506;9.050;2023-02-24T11:58:52;97052.81;;;20.08;51.24
13235;BME280;6683;48.506;9.050;2023-02-24T12:02:12;97036.69;;;21.05;49.33
13235;BME280;6683;48.506;9.050;2023-02-24T12:05:19;97030.19;;;21.69;48.28
13235;BME280;6683;48.506;9.050;2023-02-24T12:08:28;97019.09;;;22.41;47.24
13235;BME280;6683;48.506;9.050;2023-02-24T12:11:41;97012.16;;;23.10;46.22
13235;BME280;6683;48.506;9.050;2023-02-24T12:14:49;97002.50;;;23.09;45.85
13235;BME280;6683;48.506;9.050;2023-02-24T12:18:01;97003.16;;;23.33;45.31
13235;BME280;6683;48.506;9.050;2023-02-24T12:21:08;96994.34;;;23.73;43.88
13235;BME280;6683;48.506;9.050;2023-02-24T12:24:13;96996.09;;;23.37;44.06
13235;BME280;6683;48.506;9.050;2023-02-24T12:27:29;96989.47;;;22.83;43.86
13235;BME280;6683;48.506;9.050;2023-02-24T12:31:01;96981.44;;;22.04;44.49
13235;BME280;6683;48.506;9.050;2023-02-24T12:34:14;96986.84;;;21.28;45.18
13235;BME280;6683;48.506;9.050;2023-02-24T12:37:35;96983.22;;;20.46;45.67
13235;BME280;6683;48.506;9.050;2023-02-24T12:40:46;96980.66;;;19.72;46.38
13235;BME280;6683;48.506;9.050;2023-02-24T12:43:57;96970.06;;;19.17;47.15
13235;BME280;6683;48.506;9.050;2023-02-24T12:47:09;96976.81;;;18.79;47.63
13235;BME280;6683;48.506;9.050;2023-02-24T12:50:29;96981.00;;;18.40;48.03
13235;BME280;6683;48.506;9.050;2023-02-24T12:53:41;96965.47;;;18.02;48.32
13235;BME280;6683;48.506;9.050;2023-02-24T12:56:54;96970.41;;;17.68;48.54
13235;BME280;6683;48.506;9.050;2023-02-24T13:00:06;96955.56;;;17.40;49.06
13235;BME280;6683;48.506;9.050;2023-02-24T13:03:29;96950.41;;;17.19;49.32
13235;BME280;6683;48.506;9.050;2023-02-24T13:07:00;96937.81;;;17.04;49.69
13235;BME280;6683;48.506;9.050;2023-02-24T13:10:19;96940.97;;;17.01;49.81
13235;BME280;6683;48.506;9.050;2023-02-24T13:13:30;96934.53;;;16.97;49.93
13235;BME280;6683;48.506;9.050;2023-02-24T13:16:35;96938.75;;;16.88;49.74
13235;BME280;6683;48.506;9.050;2023-02-24T13:19:39;96933.56;;;16.71;50.03
13235;BME280;6683;48.506;9.050;2023-02-24T13:22:44;96939.84;;;16.55;49.98
13235;BME280;6683;48.506;9.050;2023-02-24T13:25:50;96926.09;;;16.42;50.31
13235;BME280;6683;48.506;9.050;2023-02-24T13:28:59;96920.97;;;16.30;50.53
13235;BME280;6683;48.506;9.050;2023-02-24T13:32:03;96916.34;;;16.21;50.48
13235;BME280;6683;48.506;9.050;2023-02-24T13:35:32;96913.34;;;16.12;50.67
13235;BME280;6683;48.506;9.050;2023-02-24T13:38:40;96899.69;;;16.04;50.81
13235;BME280;6683;48.506;9.050;2023-02-24T13:41:42;96904.97;;;15.98;50.86
13235;BME280;6683;48.506;9.050;2023-02-24T13:44:48;96891.63;;;15.93;50.87
13235;BME280;6683;48.506;9.050;2023-02-24T13:48:17;96889.44;;;15.90;50.99
13235;BME280;6683;48.506;9.050;2023-02-24T13:51:43;96883.56;;;15.88;51.03
13235;BME280;6683;48.506;9.050;2023-02-24T13:55:25;96884.88;;;15.86;51.27
13235;BME280;6683;48.506;9.050;2023-02-24T13:58:47;96871.84;;;15.84;51.09
13235;BME280;6683;48.506;9.050;2023-02-24T14:01:57;96878.44;;;15.82;51.09
13235;BME280;6683;48.506;9.050;2023-02-24T14:05:08;96869.38;;;15.78;51.07
13235;BME280;6683;48.506;9.050;2023-02-24T14:08:19;96877.06;;;15.74;50.98
13235;BME280;6683;48.506;9.050;2023-02-24T14:11:27;96866.34;;;15.69;50.93
13235;BME280;6683;48.506;9.050;2023-02-24T14:14:31;96863.41;;;15.66;51.07
13235;BME280;6683;48.506;9.050;2023-02-24T14:17:35;96862.28;;;15.62;50.95
13235;BME280;6683;48.506;9.050;2023-02-24T14:20:38;96848.38;;;15.55;50.92
13235;BME280;6683;48.506;9.050;2023-02-24T14:23:41;96852.03;;;15.49;51.01
13235;BME280;6683;48.506;9.050;2023-02-24T14:26:48;96841.56;;;15.42;51.06
13235;BME280;6683;48.506;9.050;2023-02-24T14:29:52;96847.06;;;15.36;51.01
13235;BME280;6683;48.506;9.050;2023-02-24T14:32:54;96835.84;;;15.29;51.09
13235;BME280;6683;48.506;9.050;2023-02-24T14:35:57;96842.94;;;15.23;50.91
13235;BME280;6683;48.506;9.050;2023-02-24T14:39:08;96842.09;;;15.17;50.99
13235;BME280;6683;48.506;9.050;2023-02-24T14:42:15;96842.56;;;15.14;51.06
13235;BME280;6683;48.506;9.050;2023-02-24T14:45:20;96835.03;;;15.06;51.15
13235;BME280;6683;48.506;9.050;2023-02-24T14:48:27;96844.06;;;15.05;51.04
13235;BME280;6683;48.506;9.050;2023-02-24T14:51:33;96834.75;;;15.03;51.41
13235;BME280;6683;48.506;9.050;2023-02-24T14:54:42;96832.56;;;15.00;51.58
13235;BME280;6683;48.506;9.050;2023-02-24T14:57:54;96828.78;;;14.96;51.55
13235;BME280;6683;48.506;9.050;2023-02-24T15:01:00;96831.97;;;14.93;51.80
13235;BME280;6683;48.506;9.050;2023-02-24T15:04:11;96823.69;;;14.89;51.81
13235;BME280;6683;48.506;9.050;2023-02-24T15:07:18;96825.53;;;14.89;51.96
13235;BME280;6683;48.506;9.050;2023-02-24T15:10:26;96822.88;;;14.89;52.23
13235;BME280;6683;48.506;9.050;2023-02-24T15:13:36;96812.75;;;14.86;52.40
13235;BME280;6683;48.506;9.050;2023-02-24T15:16:43;96802.91;;;14.86;52.39
13235;BME280;6683;48.506;9.050;2023-02-24T15:19:48;96797.34;;;14.88;52.51
13235;BME280;6683;48.506;9.050;2023-02-24T15:22:54;96791.00;;;14.89;52.44
13235;BME280;6683;48.506;9.050;2023-02-24T15:25:57;96790.50;;;14.92;52.48
13235;BME280;6683;48.506;9.050;2023-02-24T15:29:11;96786.00;;;14.92;52.64
13235;BME280;6683;48.506;9.050;2023-02-24T15:32:17;96781.19;;;14.89;52.54
13235;BME280;6683;48.506;9.050;2023-02-24T15:35:21;96776.66;;;14.90;52.45
13235;BME280;6683;48.506;9.050;2023-02-24T15:38:30;96771.13;;;14.91;52.41
13235;BME280;6683;48.506;9.050;2023-02-24T15:41:39;96763.16;;;14.91;52.47
13235;BME280;6683;48.506;9.050;2023-02-24T15:44:52;96766.34;;;14.93;52.38
13235;BME280;6683;48.506;9.050;2023-02-24T15:47:58;96764.47;;;14.94;52.32
13235;BME280;6683;48.506;9.050;2023-02-24T15:51:04;96752.56;;;14.96;52.35
13235;BME280;6683;48.506;9.050;2023-02-24T15:54:10;96761.09;;;14.98;52.37
13235;BME280;6683;48.506;9.050;2023-02-24T15:57:16;96751.53;;;14.97;52.23
13235;BME280;6683;48.506;9.050;2023-02-24T16:00:22;96753.91;;;14.99;52.18
13235;BME280;6683;48.506;9.050;2023-02-24T16:03:25;96750.72;;;14.97;52.10
13235;BME280;6683;48.506;9.050;2023-02-24T16:06:28;96754.41;;;14.96;52.00
13235;BME280;6683;48.506;9.050;2023-02-24T16:09:33;96750.63;;;14.92;52.07
13235;BME280;6683;48.506;9.050;2023-02-24T16:12:48;96753.47;;;14.85;52.06
13235;BME280;6683;48.506;9.050;2023-02-24T16:15:52;96755.28;;;14.80;51.77
13235;BME280;6683;48.506;9.050;2023-02-24T16:18:56;96754.19;;;14.76;52.04
13235;BME280;6683;48.506;9.050;2023-02-24T16:21:58;96755.97;;;14.70;52.02
13235;BME280;6683;48.506;9.050;2023-02-24T16:25:01;96753.25;;;14.65;52.00
13235;BME280;6683;48.506;9.050;2023-02-24T16:28:03;96760.09;;;14.61;51.98
13235;BME280;6683;48.506;9.050;2023-02-24T16:31:07;96755.53;;;14.57;52.14
13235;BME280;6683;48.506;9.050;2023-02-24T16:34:13;96758.69;;;14.54;52.17
13235;BME280;6683;48.506;9.050;2023-02-24T16:37:19;96753.31;;;14.49;52.08
13235;BME280;6683;48.506;9.050;2023-02-24T16:40:24;96750.09;;;14.47;52.16
13235;BME280;6683;48.506;9.050;2023-02-24T16:43:27;96754.28;;;14.43;52.12
13235;BME280;6683;48.506;9.050;2023-02-24T16:46:36;96754.22;;;14.37;52.24
13235;BME280;6683;48.506;9.050;2023-02-24T16:49:40;96760.59;;;14.36;52.19
13235;BME280;6683;48.506;9.050;2023-02-24T16:52:43;96760.84;;;14.35;52.36
13235;BME280;6683;48.506;9.050;2023-02-24T16:55:46;96760.50;;;14.31;52.49
13235;BME280;6683;48.506;9.050;2023-02-24T16:58:48;96761.00;;;14.28;52.58